sensor_id;sensor_type;location;lat;lon;timestamp;P1;durP1;ratioP1;P2;durP2;ratioP2
12587;SDS011;6359;51.450;7.346;2023-03-25T00:00:27;4.40;;;1.63;;
12587;SDS011;6359;51.450;7.346;2023-03-25T00:02:54;5.20;;;1.50;;
12587;SDS011;6359;51.450;7.346;2023-03-25T00:05:21;6.60;;;1.67;;
12587;SDS011;6359;51.450;7.346;2023-03-25T00:07:48;3.53;;;1.35;;
12587;SDS011;6359;51.450;7.346;2023-03-25T00:10:17;2.50;;;1.27;;
12587;SDS011;6359;51.450;7.346;2023-03-25T00:12:45;3.05;;;1.42;;
12587;SDS011;6359;51.450;7.346;2023-03-25T00:15:12;3.28;;;1.38;;
12587;SDS011;6359;51.450;7.346;2023-03-25T00:17:40;3.80;;;1.00;;
12587;SDS011;6359;51.450;7.346;2023-03-25T00:20:08;2.85;;;1.30;;
12587;SDS011;6359;51.450;7.346;2023-03-25T00:22:36;5.05;;;1.50;;
12587;SDS011;6359;51.450;7.346;2023-03-25T00:25:05;3.55;;;1.40;;
12587;SDS011;6359;51.450;7.346;2023-03-25T00:27:33;5.70;;;2.15;;
12587;SDS011;6359;51.450;7.346;2023-03-25T00:30:02;8.20;;;2.45;;
12587;SDS011;6359;51.450;7.346;2023-03-25T00:32:29;3.40;;;1.50;;
12587;SDS011;6359;51.450;7.346;2023-03-25T00:34:56;2.90;;;1.80;;
12587;SDS011;6359;51.450;7.346;2023-03-25T00:37:23;4.25;;;1.77;;
12587;SDS011;6359;51.450;7.346;2023-03-25T00:39:51;3.08;;;1.67;;
12587;SDS011;6359;51.450;7.346;2023-03-25T00:42:18;4.75;;;1.90;;
12587;SDS011;6359;51.450;7.346;2023-03-25T00:44:50;6.88;;;2.67;;
12587;SDS011;6359;51.450;7.346;2023-03-25T00:47:18;6.63;;;2.20;;
12587;SDS011;6359;51.450;7.346;2023-03-25T00:49:46;7.38;;;2.45;;
12587;SDS011;6359;51.450;7.346;2023-03-25T00:52:13;5.10;;;1.73;;
12587;SDS011;6359;51.450;7.346;2023-03-25T00:54:41;2.97;;;1.27;;
12587;SDS011;6359;51.450;7.346;2023-03-25T00:57:07;4.53;;;1.40;;
12587;SDS011;6359;51.450;7.346;2023-03-25T00:59:34;3.97;;;1.50;;
12587;SDS011;6359;51.450;7.346;2023-03-25T01:02:01;5.18;;;2.28;;
12587;SDS011;6359;51.450;7.346;2023-03-25T01:04:32;4.22;;;1.92;;
12587;SDS011;6359;51.450;7.346;2023-03-25T01:06:59;3.45;;;1.20;;
12587;SDS011;6359;51.450;7.346;2023-03-25T01:09:27;2.88;;;1.02;;
12587;SDS011;6359;51.450;7.346;2023-03-25T01:11:54;4.78;;;1.60;;
12587;SDS011;6359;51.450;7.346;2023-03-25T01:14:21;4.95;;;1.10;;
12587;SDS011;6359;51.450;7.346;2023-03-25T01:16:51;4.15;;;1.15;;
12587;SDS011;6359;51.450;7.346;2023-03-25T01:19:19;3.72;;;1.40;;
12587;SDS011;6359;51.450;7.346;2023-03-25T01:21:47;2.10;;;0.90;;
12587;SDS011;6359;51.450;7.346;2023-03-25T01:24:15;3.88;;;1.27;;
12587;SDS011;6359;51.450;7.346;2023-03-25T01:26:42;6.97;;;1.73;;
12587;SDS011;6359;51.450;7.346;2023-03-25T01:29:10;3.70;;;1.25;;
12587;SDS011;6359;51.450;7.346;2023-03-25T01:31:38;5.15;;;1.48;;
12587;SDS011;6359;51.450;7.346;2023-03-25T01:34:05;5.57;;;1.52;;
12587;SDS011;6359;51.450;7.346;2023-03-25T01:36:32;4.00;;;1.67;;
12587;SDS011;6359;51.450;7.346;2023-03-25T01:39:02;4.40;;;1.50;;
12587;SDS011;6359;51.450;7.346;2023-03-25T01:41:30;5.72;;;1.30;;
12587;SDS011;6359;51.450;7.346;2023-03-25T01:44:01;4.97;;;1.38;;
12587;SDS011;6359;51.450;7.346;2023-03-25T01:46:29;4.93;;;1.40;;
12587;SDS011;6359;51.450;7.346;2023-03-25T01:48:56;4.90;;;1.60;;
12587;SDS011;6359;51.450;7.346;2023-03-25T01:51:27;5.82;;;1.98;;
12587;SDS011;6359;51.450;7.346;2023-03-25T01:53:56;5.38;;;1.60;;
12587;SDS011;6359;51.450;7.346;2023-03-25T01:56:25;3.85;;;1.65;;
12587;SDS011;6359;51.450;7.346;2023-03-25T01:58:56;8.85;;;1.52;;
12587;SDS011;6359;51.450;7.346;2023-03-25T02:01:26;3.67;;;1.35;;
12587;SDS011;6359;51.450;7.346;2023-03-25T02:03:55;3.60;;;1.48;;
12587;SDS011;6359;51.450;7.346;2023-03-25T02:06:34;4.43;;;1.75;;
12587;SDS011;6359;51.450;7.346;2023-03-25T02:09:06;7.15;;;1.98;;
12587;SDS011;6359;51.450;7.346;2023-03-25T02:11:37;5.47;;;1.58;;
12587;SDS011;6359;51.450;7.346;2023-03-25T02:14:05;5.07;;;1.60;;
12587;SDS011;6359;51.450;7.346;2023-03-25T02:16:37;4.07;;;1.17;;
12587;SDS011;6359;51.450;7.346;2023-03-25T02:25:20;4.57;;;1.63;;
12587;SDS011;6359;51.450;7.346;2023-03-25T02:28:13;5.40;;;2.10;;
12587;SDS011;6359;51.450;7.346;2023-03-25T02:30:56;2.70;;;1.40;;
12587;SDS011;6359;51.450;7.346;2023-03-25T02:33:49;4.40;;;1.20;;
12587;SDS011;6359;51.450;7.346;2023-03-25T02:39:40;7.57;;;1.38;;
12587;SDS011;6359;51.450;7.346;2023-03-25T02:42:12;6.35;;;1.73;;
12587;SDS011;6359;51.450;7.346;2023-03-25T02:44:46;2.38;;;1.40;;
12587;SDS011;6359;51.450;7.346;2023-03-25T02:47:19;3.35;;;1.27;;
12587;SDS011;6359;51.450;7.346;2023-03-25T02:49:51;1.48;;;0.93;;
12587;SDS011;6359;51.450;7.346;2023-03-25T02:52:23;2.45;;;1.17;;
12587;SDS011;6359;51.450;7.346;2023-03-25T02:54:54;4.85;;;1.10;;
12587;SDS011;6359;51.450;7.346;2023-03-25T02:57:25;6.18;;;1.20;;
12587;SDS011;6359;51.450;7.346;2023-03-25T02:59:54;2.92;;;1.40;;
12587;SDS011;6359;51.450;7.346;2023-03-25T03:02:24;2.47;;;1.17;;
12587;SDS011;6359;51.450;7.346;2023-03-25T03:04:56;1.45;;;0.73;;
12587;SDS011;6359;51.450;7.346;2023-03-25T03:07:24;1.88;;;1.00;;
12587;SDS011;6359;51.450;7.346;2023-03-25T03:10:02;3.03;;;1.20;;
12587;SDS011;6359;51.450;7.346;2023-03-25T03:12:44;1.45;;;1.10;;
12587;SDS011;6359;51.450;7.346;2023-03-25T03:15:26;2.85;;;0.80;;
12587;SDS011;6359;51.450;7.346;2023-03-25T03:18:06;1.50;;;1.13;;
12587;SDS011;6359;51.450;7.346;2023-03-25T03:20:39;2.58;;;1.10;;
12587;SDS011;6359;51.450;7.346;2023-03-25T03:23:11;5.13;;;1.30;;
12587;SDS011;6359;51.450;7.346;2023-03-25T03:25:50;1.70;;;1.40;;
12587;SDS011;6359;51.450;7.346;2023-03-25T03:28:22;6.82;;;1.60;;
12587;SDS011;6359;51.450;7.346;2023-03-25T03:30:55;3.28;;;1.15;;
12587;SDS011;6359;51.450;7.346;2023-03-25T03:33:25;2.38;;;1.20;;
12587;SDS011;6359;51.450;7.346;2023-03-25T03:35:58;3.83;;;1.23;;
12587;SDS011;6359;51.450;7.346;2023-03-25T03:38:29;1.60;;;1.05;;
12587;SDS011;6359;51.450;7.346;2023-03-25T03:41:02;1.70;;;1.20;;
12587;SDS011;6359;51.450;7.346;2023-03-25T03:43:34;3.42;;;1.50;;
12587;SDS011;6359;51.450;7.346;2023-03-25T03:46:05;2.63;;;1.35;;
12587;SDS011;6359;51.450;7.346;2023-03-25T03:48:35;5.75;;;1.60;;
12587;SDS011;6359;51.450;7.346;2023-03-25T03:51:07;4.70;;;1.40;;
12587;SDS011;6359;51.450;7.346;2023-03-25T03:53:38;2.13;;;1.25;;
12587;SDS011;6359;51.450;7.346;2023-03-25T03:56:10;6.80;;;1.58;;
12587;SDS011;6359;51.450;7.346;2023-03-25T03:58:41;1.95;;;1.30;;
12587;SDS011;6359;51.450;7.346;2023-03-25T04:01:09;4.45;;;1.38;;
12587;SDS011;6359;51.450;7.346;2023-03-25T04:03:40;2.20;;;1.10;;
12587;SDS011;6359;51.450;7.346;2023-03-25T04:06:14;4.47;;;1.30;;
12587;SDS011;6359;51.450;7.346;2023-03-25T04:08:46;4.13;;;1.45;;
12587;SDS011;6359;51.450;7.346;2023-03-25T04:11:24;2.17;;;1.00;;
12587;SDS011;6359;51.450;7.346;2023-03-25T04:13:55;3.78;;;1.33;;
12587;SDS011;6359;51.450;7.346;2023-03-25T04:16:25;4.78;;;1.50;;
12587;SDS011;6359;51.450;7.346;2023-03-25T04:18:52;5.28;;;1.77;;
12587;SDS011;6359;51.450;7.346;2023-03-25T04:21:19;4.85;;;1.63;;
12587;SDS011;6359;51.450;7.346;2023-03-25T04:23:46;4.57;;;1.67;;
12587;SDS011;6359;51.450;7.346;2023-03-25T04:26:13;6.53;;;1.63;;
12587;SDS011;6359;51.450;7.346;2023-03-25T04:28:42;8.95;;;1.40;;
12587;SDS011;6359;51.450;7.346;2023-03-25T04:31:11;2.97;;;1.48;;
12587;SDS011;6359;51.450;7.346;2023-03-25T04:33:40;2.95;;;1.20;;
12587;SDS011;6359;51.450;7.346;2023-03-25T04:36:11;1.20;;;1.10;;
12587;SDS011;6359;51.450;7.346;2023-03-25T04:38:38;4.90;;;1.77;;
12587;SDS011;6359;51.450;7.346;2023-03-25T04:41:10;3.08;;;1.05;;
12587;SDS011;6359;51.450;7.346;2023-03-25T04:43:37;3.08;;;1.50;;
12587;SDS011;6359;51.450;7.346;2023-03-25T04:46:07;3.60;;;1.25;;
12587;SDS011;6359;51.450;7.346;2023-03-25T04:48:38;6.70;;;1.52;;
12587;SDS011;6359;51.450;7.346;2023-03-25T04:51:09;8.35;;;1.45;;
12587;SDS011;6359;51.450;7.346;2023-03-25T04:53:37;2.85;;;1.20;;
12587;SDS011;6359;51.450;7.346;2023-03-25T04:56:04;6.20;;;1.92;;
12587;SDS011;6359;51.450;7.346;2023-03-25T04:58:37;6.28;;;1.58;;
12587;SDS011;6359;51.450;7.346;2023-03-25T05:01:06;7.38;;;1.70;;
12587;SDS011;6359;51.450;7.346;2023-03-25T05:03:35;12.90;;;1.98;;
12587;SDS011;6359;51.450;7.346;2023-03-25T05:06:04;3.63;;;1.52;;
12587;SDS011;6359;51.450;7.346;2023-03-25T05:08:33;6.13;;;1.92;;
12587;SDS011;6359;51.450;7.346;2023-03-25T05:11:08;6.82;;;1.88;;
12587;SDS011;6359;51.450;7.346;2023-03-25T05:13:35;6.50;;;1.65;;
12587;SDS011;6359;51.450;7.346;2023-03-25T05:16:02;4.00;;;1.83;;
12587;SDS011;6359;51.450;7.346;2023-03-25T05:18:31;5.50;;;1.50;;
12587;SDS011;6359;51.450;7.346;2023-03-25T05:20:57;4.13;;;1.35;;
12587;SDS011;6359;51.450;7.346;2023-03-25T05:23:27;4.30;;;1.70;;
12587;SDS011;6359;51.450;7.346;2023-03-25T05:25:55;4.93;;;1.27;;
12587;SDS011;6359;51.450;7.346;2023-03-25T05:28:22;5.55;;;1.60;;
12587;SDS011;6359;51.450;7.346;2023-03-25T05:30:49;5.60;;;1.38;;
12587;SDS011;6359;51.450;7.346;2023-03-25T05:33:16;5.53;;;1.52;;
12587;SDS011;6359;51.450;7.346;2023-03-25T05:35:45;5.28;;;1.80;;
12587;SDS011;6359;51.450;7.346;2023-03-25T05:38:13;6.78;;;1.52;;
12587;SDS011;6359;51.450;7.346;2023-03-25T05:40:42;10.70;;;1.90;;
12587;SDS011;6359;51.450;7.346;2023-03-25T05:43:10;7.45;;;1.50;;
12587;SDS011;6359;51.450;7.346;2023-03-25T05:45:38;6.53;;;1.88;;
12587;SDS011;6359;51.450;7.346;2023-03-25T05:48:06;7.00;;;1.75;;
12587;SDS011;6359;51.450;7.346;2023-03-25T05:50:33;7.68;;;1.77;;
12587;SDS011;6359;51.450;7.346;2023-03-25T05:53:03;7.18;;;1.73;;
12587;SDS011;6359;51.450;7.346;2023-03-25T05:55:30;6.15;;;1.75;;
12587;SDS011;6359;51.450;7.346;2023-03-25T05:57:57;6.47;;;1.77;;
12587;SDS011;6359;51.450;7.346;2023-03-25T06:00:25;6.13;;;2.10;;
12587;SDS011;6359;51.450;7.346;2023-03-25T06:02:52;3.90;;;1.85;;
12587;SDS011;6359;51.450;7.346;2023-03-25T06:05:19;4.85;;;1.90;;
12587;SDS011;6359;51.450;7.346;2023-03-25T06:07:47;5.53;;;1.85;;
12587;SDS011;6359;51.450;7.346;2023-03-25T06:10:17;6.70;;;2.38;;
12587;SDS011;6359;51.450;7.346;2023-03-25T06:12:45;5.53;;;2.33;;
12587;SDS011;6359;51.450;7.346;2023-03-25T06:15:13;7.95;;;2.67;;
12587;SDS011;6359;51.450;7.346;2023-03-25T06:17:42;12.23;;;2.20;;
12587;SDS011;6359;51.450;7.346;2023-03-25T06:20:11;6.13;;;2.08;;
12587;SDS011;6359;51.450;7.346;2023-03-25T06:22:41;6.55;;;1.92;;
12587;SDS011;6359;51.450;7.346;2023-03-25T06:25:09;8.43;;;2.28;;
12587;SDS011;6359;51.450;7.346;2023-03-25T06:27:38;9.45;;;2.00;;
12587;SDS011;6359;51.450;7.346;2023-03-25T06:30:06;5.68;;;2.10;;
12587;SDS011;6359;51.450;7.346;2023-03-25T06:32:34;4.65;;;1.95;;
12587;SDS011;6359;51.450;7.346;2023-03-25T06:35:02;5.40;;;2.03;;
12587;SDS011;6359;51.450;7.346;2023-03-25T06:37:31;8.73;;;2.50;;
12587;SDS011;6359;51.450;7.346;2023-03-25T06:39:58;2.55;;;1.50;;
12587;SDS011;6359;51.450;7.346;2023-03-25T06:42:25;5.28;;;1.95;;
12587;SDS011;6359;51.450;7.346;2023-03-25T06:44:54;3.95;;;1.90;;
12587;SDS011;6359;51.450;7.346;2023-03-25T06:47:21;6.55;;;2.05;;
12587;SDS011;6359;51.450;7.346;2023-03-25T06:49:48;6.97;;;2.72;;
12587;SDS011;6359;51.450;7.346;2023-03-25T06:52:15;6.45;;;2.08;;
12587;SDS011;6359;51.450;7.346;2023-03-25T06:54:43;5.07;;;1.98;;
12587;SDS011;6359;51.450;7.346;2023-03-25T06:57:10;8.75;;;2.50;;
12587;SDS011;6359;51.450;7.346;2023-03-25T06:59:37;10.77;;;1.95;;
12587;SDS011;6359;51.450;7.346;2023-03-25T07:02:05;6.03;;;1.50;;
12587;SDS011;6359;51.450;7.346;2023-03-25T07:04:32;5.65;;;1.73;;
12587;SDS011;6359;51.450;7.346;2023-03-25T07:07:00;7.10;;;2.00;;
12587;SDS011;6359;51.450;7.346;2023-03-25T07:09:27;4.35;;;1.58;;
12587;SDS011;6359;51.450;7.346;2023-03-25T07:11:54;5.55;;;1.88;;
12587;SDS011;6359;51.450;7.346;2023-03-25T07:14:21;3.05;;;1.23;;
12587;SDS011;6359;51.450;7.346;2023-03-25T07:16:48;10.43;;;1.85;;
12587;SDS011;6359;51.450;7.346;2023-03-25T07:19:16;3.30;;;1.60;;
12587;SDS011;6359;51.450;7.346;2023-03-25T07:21:43;6.60;;;1.15;;
12587;SDS011;6359;51.450;7.346;2023-03-25T07:24:10;8.70;;;1.60;;
12587;SDS011;6359;51.450;7.346;2023-03-25T07:26:37;5.55;;;1.52;;
12587;SDS011;6359;51.450;7.346;2023-03-25T07:29:04;4.07;;;1.50;;
12587;SDS011;6359;51.450;7.346;2023-03-25T07:31:31;6.28;;;1.52;;
12587;SDS011;6359;51.450;7.346;2023-03-25T07:33:58;4.45;;;1.27;;
12587;SDS011;6359;51.450;7.346;2023-03-25T07:36:28;4.50;;;1.55;;
12587;SDS011;6359;51.450;7.346;2023-03-25T07:38:55;6.70;;;1.85;;
12587;SDS011;6359;51.450;7.346;2023-03-25T07:41:22;5.03;;;1.83;;
12587;SDS011;6359;51.450;7.346;2023-03-25T07:43:49;7.07;;;2.00;;
12587;SDS011;6359;51.450;7.346;2023-03-25T07:46:16;10.25;;;2.30;;
12587;SDS011;6359;51.450;7.346;2023-03-25T07:48:43;6.63;;;1.90;;
12587;SDS011;6359;51.450;7.346;2023-03-25T07:51:10;7.85;;;2.35;;
12587;SDS011;6359;51.450;7.346;2023-03-25T07:53:39;9.65;;;2.90;;
12587;SDS011;6359;51.450;7.346;2023-03-25T07:56:08;6.30;;;2.08;;
12587;SDS011;6359;51.450;7.346;2023-03-25T07:58:36;11.63;;;2.47;;
12587;SDS011;6359;51.450;7.346;2023-03-25T08:01:03;8.23;;;1.98;;
12587;SDS011;6359;51.450;7.346;2023-03-25T08:03:30;7.40;;;2.38;;
12587;SDS011;6359;51.450;7.346;2023-03-25T08:05:59;11.18;;;2.40;;
12587;SDS011;6359;51.450;7.346;2023-03-25T08:08:26;6.25;;;2.10;;
12587;SDS011;6359;51.450;7.346;2023-03-25T08:10:56;3.70;;;1.73;;
12587;SDS011;6359;51.450;7.346;2023-03-25T08:13:24;3.30;;;1.75;;
12587;SDS011;6359;51.450;7.346;2023-03-25T08:15:51;5.60;;;1.50;;
12587;SDS011;6359;51.450;7.346;2023-03-25T08:18:18;5.97;;;2.08;;
12587;SDS011;6359;51.450;7.346;2023-03-25T08:20:46;6.47;;;1.92;;
12587;SDS011;6359;51.450;7.346;2023-03-25T08:23:14;8.45;;;2.00;;
12587;SDS011;6359;51.450;7.346;2023-03-25T08:25:44;3.53;;;1.52;;
12587;SDS011;6359;51.450;7.346;2023-03-25T08:28:15;6.65;;;1.50;;
12587;SDS011;6359;51.450;7.346;2023-03-25T08:30:46;7.43;;;1.90;;
12587;SDS011;6359;51.450;7.346;2023-03-25T08:33:13;5.75;;;1.55;;
12587;SDS011;6359;51.450;7.346;2023-03-25T08:35:42;2.90;;;1.45;;
12587;SDS011;6359;51.450;7.346;2023-03-25T08:38:10;2.67;;;1.40;;
12587;SDS011;6359;51.450;7.346;2023-03-25T08:40:37;4.22;;;1.52;;
12587;SDS011;6359;51.450;7.346;2023-03-25T08:43:05;6.68;;;2.13;;
12587;SDS011;6359;51.450;7.346;2023-03-25T08:45:34;9.95;;;2.33;;
12587;SDS011;6359;51.450;7.346;2023-03-25T08:48:01;3.92;;;1.38;;
12587;SDS011;6359;51.450;7.346;2023-03-25T08:50:29;3.45;;;1.48;;
12587;SDS011;6359;51.450;7.346;2023-03-25T08:52:56;8.82;;;1.65;;
12587;SDS011;6359;51.450;7.346;2023-03-25T08:55:24;9.27;;;2.38;;
12587;SDS011;6359;51.450;7.346;2023-03-25T08:57:51;5.45;;;1.60;;
12587;SDS011;6359;51.450;7.346;2023-03-25T09:00:18;8.00;;;1.75;;
12587;SDS011;6359;51.450;7.346;2023-03-25T09:02:49;6.38;;;2.00;;
12587;SDS011;6359;51.450;7.346;2023-03-25T09:05:17;6.65;;;1.83;;
12587;SDS011;6359;51.450;7.346;2023-03-25T09:07:44;7.72;;;2.17;;
12587;SDS011;6359;51.450;7.346;2023-03-25T09:10:12;8.60;;;1.92;;
12587;SDS011;6359;51.450;7.346;2023-03-25T09:12:39;11.23;;;2.25;;
12587;SDS011;6359;51.450;7.346;2023-03-25T09:15:07;8.77;;;1.90;;
12587;SDS011;6359;51.450;7.346;2023-03-25T09:17:36;9.57;;;2.00;;
12587;SDS011;6359;51.450;7.346;2023-03-25T09:20:05;8.00;;;2.15;;
12587;SDS011;6359;51.450;7.346;2023-03-25T09:22:33;8.95;;;2.15;;
12587;SDS011;6359;51.450;7.346;2023-03-25T09:25:00;10.23;;;2.28;;
12587;SDS011;6359;51.450;7.346;2023-03-25T09:27:30;16.77;;;2.58;;
12587;SDS011;6359;51.450;7.346;2023-03-25T09:29:58;15.85;;;2.92;;
12587;SDS011;6359;51.450;7.346;2023-03-25T09:32:25;10.82;;;2.00;;
12587;SDS011;6359;51.450;7.346;2023-03-25T09:34:52;8.43;;;2.47;;
12587;SDS011;6359;51.450;7.346;2023-03-25T09:37:20;7.05;;;2.03;;
12587;SDS011;6359;51.450;7.346;2023-03-25T09:39:47;7.13;;;2.00;;
12587;SDS011;6359;51.450;7.346;2023-03-25T09:42:23;10.40;;;2.08;;
12587;SDS011;6359;51.450;7.346;2023-03-25T09:45:16;5.75;;;2.10;;
12587;SDS011;6359;51.450;7.346;2023-03-25T09:47:56;10.38;;;2.13;;
12587;SDS011;6359;51.450;7.346;2023-03-25T09:50:28;9.18;;;2.45;;
12587;SDS011;6359;51.450;7.346;2023-03-25T09:52:59;8.75;;;2.33;;
12587;SDS011;6359;51.450;7.346;2023-03-25T09:55:29;6.65;;;2.20;;
12587;SDS011;6359;51.450;7.346;2023-03-25T09:58:01;9.50;;;2.08;;
12587;SDS011;6359;51.450;7.346;2023-03-25T10:00:39;10.30;;;2.20;;
12587;SDS011;6359;51.450;7.346;2023-03-25T10:03:11;12.27;;;3.22;;
12587;SDS011;6359;51.450;7.346;2023-03-25T10:05:47;9.88;;;2.38;;
12587;SDS011;6359;51.450;7.346;2023-03-25T10:08:36;10.80;;;2.38;;
12587;SDS011;6359;51.450;7.346;2023-03-25T10:11:15;11.60;;;2.50;;
12587;SDS011;6359;51.450;7.346;2023-03-25T10:13:49;9.13;;;2.53;;
12587;SDS011;6359;51.450;7.346;2023-03-25T10:16:24;12.88;;;2.88;;
12587;SDS011;6359;51.450;7.346;2023-03-25T10:18:59;7.30;;;2.13;;
12587;SDS011;6359;51.450;7.346;2023-03-25T10:21:40;6.65;;;1.60;;
12587;SDS011;6359;51.450;7.346;2023-03-25T10:24:17;8.48;;;2.00;;
12587;SDS011;6359;51.450;7.346;2023-03-25T10:26:47;7.70;;;2.30;;
12587;SDS011;6359;51.450;7.346;2023-03-25T10:29:19;7.75;;;2.33;;
12587;SDS011;6359;51.450;7.346;2023-03-25T10:31:51;8.60;;;2.28;;
12587;SDS011;6359;51.450;7.346;2023-03-25T10:34:22;14.40;;;2.35;;
12587;SDS011;6359;51.450;7.346;2023-03-25T10:36:58;6.72;;;2.10;;
12587;SDS011;6359;51.450;7.346;2023-03-25T10:39:31;13.43;;;2.33;;
12587;SDS011;6359;51.450;7.346;2023-03-25T10:42:02;6.40;;;1.85;;
12587;SDS011;6359;51.450;7.346;2023-03-25T10:44:39;14.30;;;2.20;;
12587;SDS011;6359;51.450;7.346;2023-03-25T10:47:07;8.90;;;2.10;;
12587;SDS011;6359;51.450;7.346;2023-03-25T10:49:39;7.00;;;2.45;;
12587;SDS011;6359;51.450;7.346;2023-03-25T10:52:06;7.90;;;2.13;;
12587;SDS011;6359;51.450;7.346;2023-03-25T10:54:36;7.47;;;2.05;;
12587;SDS011;6359;51.450;7.346;2023-03-25T10:57:07;5.72;;;2.03;;
12587;SDS011;6359;51.450;7.346;2023-03-25T10:59:36;4.93;;;1.75;;
12587;SDS011;6359;51.450;7.346;2023-03-25T11:02:11;10.07;;;2.50;;
12587;SDS011;6359;51.450;7.346;2023-03-25T11:04:40;6.35;;;2.05;;
12587;SDS011;6359;51.450;7.346;2023-03-25T11:07:12;6.65;;;2.38;;
12587;SDS011;6359;51.450;7.346;2023-03-25T11:09:46;6.68;;;1.90;;
12587;SDS011;6359;51.450;7.346;2023-03-25T11:12:13;8.52;;;1.88;;
12587;SDS011;6359;51.450;7.346;2023-03-25T11:14:44;9.95;;;2.70;;
12587;SDS011;6359;51.450;7.346;2023-03-25T11:17:20;7.43;;;2.15;;
12587;SDS011;6359;51.450;7.346;2023-03-25T11:19:51;12.20;;;2.20;;
12587;SDS011;6359;51.450;7.346;2023-03-25T11:22:21;13.13;;;2.80;;
12587;SDS011;6359;51.450;7.346;2023-03-25T11:24:55;6.00;;;1.70;;
12587;SDS011;6359;51.450;7.346;2023-03-25T11:27:26;10.93;;;2.20;;
12587;SDS011;6359;51.450;7.346;2023-03-25T11:29:55;8.57;;;1.80;;
12587;SDS011;6359;51.450;7.346;2023-03-25T11:32:30;9.10;;;2.20;;
12587;SDS011;6359;51.450;7.346;2023-03-25T11:34:59;6.28;;;2.08;;
12587;SDS011;6359;51.450;7.346;2023-03-25T11:37:28;4.90;;;1.73;;
12587;SDS011;6359;51.450;7.346;2023-03-25T11:40:02;10.65;;;2.42;;
12587;SDS011;6359;51.450;7.346;2023-03-25T11:42:31;12.02;;;2.40;;
12587;SDS011;6359;51.450;7.346;2023-03-25T11:45:00;6.18;;;2.00;;
12587;SDS011;6359;51.450;7.346;2023-03-25T11:47:29;5.93;;;1.85;;
12587;SDS011;6359;51.450;7.346;2023-03-25T11:49:58;6.03;;;1.85;;
12587;SDS011;6359;51.450;7.346;2023-03-25T11:52:26;10.70;;;2.25;;
12587;SDS011;6359;51.450;7.346;2023-03-25T11:55:02;11.00;;;2.35;;
12587;SDS011;6359;51.450;7.346;2023-03-25T11:57:33;5.45;;;2.15;;
12587;SDS011;6359;51.450;7.346;2023-03-25T12:00:05;6.68;;;2.25;;
12587;SDS011;6359;51.450;7.346;2023-03-25T12:02:42;8.35;;;1.98;;
12587;SDS011;6359;51.450;7.346;2023-03-25T12:05:11;9.93;;;2.35;;
12587;SDS011;6359;51.450;7.346;2023-03-25T12:07:41;3.92;;;1.73;;
12587;SDS011;6359;51.450;7.346;2023-03-25T12:10:14;6.68;;;2.08;;
12587;SDS011;6359;51.450;7.346;2023-03-25T12:12:46;8.85;;;2.38;;
12587;SDS011;6359;51.450;7.346;2023-03-25T12:15:23;9.63;;;2.10;;
12587;SDS011;6359;51.450;7.346;2023-03-25T12:18:00;10.52;;;2.60;;
12587;SDS011;6359;51.450;7.346;2023-03-25T12:20:40;7.28;;;2.03;;
12587;SDS011;6359;51.450;7.346;2023-03-25T12:23:23;7.75;;;1.88;;
12587;SDS011;6359;51.450;7.346;2023-03-25T12:26:04;6.88;;;1.70;;
12587;SDS011;6359;51.450;7.346;2023-03-25T12:31:34;9.52;;;2.13;;
12587;SDS011;6359;51.450;7.346;2023-03-25T12:34:14;8.35;;;2.10;;
12587;SDS011;6359;51.450;7.346;2023-03-25T12:36:52;6.25;;;1.85;;
12587;SDS011;6359;51.450;7.346;2023-03-25T12:39:29;3.15;;;1.55;;
12587;SDS011;6359;51.450;7.346;2023-03-25T12:42:08;3.53;;;1.60;;
12587;SDS011;6359;51.450;7.346;2023-03-25T12:44:50;4.00;;;1.20;;
12587;SDS011;6359;51.450;7.346;2023-03-25T12:47:30;6.50;;;1.38;;
12587;SDS011;6359;51.450;7.346;2023-03-25T12:50:07;8.25;;;1.58;;
12587;SDS011;6359;51.450;7.346;2023-03-25T12:52:46;4.30;;;1.40;;
12587;SDS011;6359;51.450;7.346;2023-03-25T12:55:26;6.40;;;1.85;;
12587;SDS011;6359;51.450;7.346;2023-03-25T12:58:09;6.15;;;2.03;;
12587;SDS011;6359;51.450;7.346;2023-03-25T13:00:58;6.38;;;1.75;;
12587;SDS011;6359;51.450;7.346;2023-03-25T13:03:41;5.97;;;1.98;;
12587;SDS011;6359;51.450;7.346;2023-03-25T13:06:19;5.40;;;1.52;;
12587;SDS011;6359;51.450;7.346;2023-03-25T13:08:55;8.88;;;1.88;;
12587;SDS011;6359;51.450;7.346;2023-03-25T13:11:26;8.20;;;2.60;;
12587;SDS011;6359;51.450;7.346;2023-03-25T13:13:59;8.38;;;2.03;;
12587;SDS011;6359;51.450;7.346;2023-03-25T13:16:32;7.55;;;2.30;;
12587;SDS011;6359;51.450;7.346;2023-03-25T13:19:02;8.70;;;2.33;;
12587;SDS011;6359;51.450;7.346;2023-03-25T13:21:34;9.02;;;2.33;;
12587;SDS011;6359;51.450;7.346;2023-03-25T13:24:05;6.82;;;1.80;;
12587;SDS011;6359;51.450;7.346;2023-03-25T13:26:36;6.50;;;2.10;;
12587;SDS011;6359;51.450;7.346;2023-03-25T13:29:20;7.60;;;2.10;;
12587;SDS011;6359;51.450;7.346;2023-03-25T13:31:51;13.52;;;2.60;;
12587;SDS011;6359;51.450;7.346;2023-03-25T13:34:22;11.43;;;3.22;;
12587;SDS011;6359;51.450;7.346;2023-03-25T13:37:07;12.38;;;2.65;;
12587;SDS011;6359;51.450;7.346;2023-03-25T13:39:44;11.70;;;3.50;;
12587;SDS011;6359;51.450;7.346;2023-03-25T13:42:18;7.10;;;2.22;;
12587;SDS011;6359;51.450;7.346;2023-03-25T13:44:51;7.25;;;1.80;;
12587;SDS011;6359;51.450;7.346;2023-03-25T13:47:22;5.45;;;1.60;;
12587;SDS011;6359;51.450;7.346;2023-03-25T13:49:56;7.35;;;2.25;;
12587;SDS011;6359;51.450;7.346;2023-03-25T13:52:29;7.75;;;2.50;;
12587;SDS011;6359;51.450;7.346;2023-03-25T13:55:00;6.85;;;1.80;;
12587;SDS011;6359;51.450;7.346;2023-03-25T13:57:36;6.60;;;1.83;;
12587;SDS011;6359;51.450;7.346;2023-03-25T14:00:30;7.57;;;2.05;;
12587;SDS011;6359;51.450;7.346;2023-03-25T14:03:26;6.90;;;1.73;;
12587;SDS011;6359;51.450;7.346;2023-03-25T14:06:18;6.10;;;1.60;;
12587;SDS011;6359;51.450;7.346;2023-03-25T14:09:12;4.00;;;1.23;;
12587;SDS011;6359;51.450;7.346;2023-03-25T14:12:02;3.42;;;1.20;;
12587;SDS011;6359;51.450;7.346;2023-03-25T14:14:34;5.53;;;1.42;;
12587;SDS011;6359;51.450;7.346;2023-03-25T14:17:07;5.60;;;1.73;;
12587;SDS011;6359;51.450;7.346;2023-03-25T14:19:37;6.95;;;1.42;;
12587;SDS011;6359;51.450;7.346;2023-03-25T14:22:07;3.70;;;1.70;;
12587;SDS011;6359;51.450;7.346;2023-03-25T14:24:39;2.90;;;1.20;;
12587;SDS011;6359;51.450;7.346;2023-03-25T14:27:12;3.45;;;1.15;;
12587;SDS011;6359;51.450;7.346;2023-03-25T14:29:44;2.72;;;0.95;;
12587;SDS011;6359;51.450;7.346;2023-03-25T14:32:33;2.22;;;1.02;;
12587;SDS011;6359;51.450;7.346;2023-03-25T14:38:16;4.15;;;1.38;;
12587;SDS011;6359;51.450;7.346;2023-03-25T14:41:07;5.05;;;1.42;;
12587;SDS011;6359;51.450;7.346;2023-03-25T14:43:36;3.00;;;1.20;;
12587;SDS011;6359;51.450;7.346;2023-03-25T14:46:05;5.00;;;1.30;;
12587;SDS011;6359;51.450;7.346;2023-03-25T14:48:43;4.75;;;1.27;;
12587;SDS011;6359;51.450;7.346;2023-03-25T14:51:35;3.63;;;1.10;;
12587;SDS011;6359;51.450;7.346;2023-03-25T14:54:16;4.47;;;1.33;;
12587;SDS011;6359;51.450;7.346;2023-03-25T14:56:56;4.57;;;1.40;;
12587;SDS011;6359;51.450;7.346;2023-03-25T14:59:29;6.50;;;1.70;;
12587;SDS011;6359;51.450;7.346;2023-03-25T15:02:02;2.70;;;1.02;;
12587;SDS011;6359;51.450;7.346;2023-03-25T15:04:33;1.65;;;0.80;;
12587;SDS011;6359;51.450;7.346;2023-03-25T15:07:02;2.05;;;1.10;;
12587;SDS011;6359;51.450;7.346;2023-03-25T15:09:42;1.65;;;0.80;;
12587;SDS011;6359;51.450;7.346;2023-03-25T15:12:12;3.50;;;0.90;;
12587;SDS011;6359;51.450;7.346;2023-03-25T15:14:42;1.25;;;0.90;;
12587;SDS011;6359;51.450;7.346;2023-03-25T15:17:09;2.72;;;1.20;;
12587;SDS011;6359;51.450;7.346;2023-03-25T15:26:02;4.72;;;1.52;;
12587;SDS011;6359;51.450;7.346;2023-03-25T15:28:42;5.85;;;1.88;;
12587;SDS011;6359;51.450;7.346;2023-03-25T15:31:24;4.53;;;1.73;;
12587;SDS011;6359;51.450;7.346;2023-03-25T15:34:22;4.55;;;2.03;;
12587;SDS011;6359;51.450;7.346;2023-03-25T15:37:14;5.43;;;1.77;;
12587;SDS011;6359;51.450;7.346;2023-03-25T15:40:08;6.32;;;1.70;;
12587;SDS011;6359;51.450;7.346;2023-03-25T15:42:43;6.07;;;1.35;;
12587;SDS011;6359;51.450;7.346;2023-03-25T15:45:34;3.33;;;1.55;;
12587;SDS011;6359;51.450;7.346;2023-03-25T15:48:36;13.73;;;8.43;;